createdAt,value
2019-01-23T00:01:02.387Z,28.83
2019-01-23T00:03:31.941Z,32.35
2019-01-23T00:06:01.470Z,31.83
2019-01-23T00:08:30.983Z,30.07
2019-01-23T00:11:00.564Z,29.30
2019-01-23T00:13:30.026Z,29.20
2019-01-23T00:15:59.883Z,29.87
2019-01-23T00:18:29.400Z,28.60
2019-01-23T00:20:58.920Z,29.17
2019-01-23T00:23:28.798Z,30.50
2019-01-23T00:25:58.363Z,32.17
2019-01-23T00:28:27.886Z,30.30
2019-01-23T00:30:57.408Z,27.93
2019-01-23T00:33:26.930Z,30.60
2019-01-23T00:35:56.514Z,28.87
2019-01-23T00:38:25.985Z,29.47
2019-01-23T00:40:55.523Z,28.03
2019-01-23T00:43:25.029Z,30.07
2019-01-23T00:45:54.677Z,29.83
2019-01-23T00:48:24.248Z,30.57
2019-01-23T00:50:53.759Z,30.37
2019-01-23T00:53:23.286Z,30.90
2019-01-23T00:55:52.799Z,29.00
2019-01-23T00:58:22.332Z,31.20
2019-01-23T01:00:51.846Z,31.33
2019-01-23T01:03:21.491Z,30.83
2019-01-23T01:05:51.113Z,32.20
2019-01-23T01:08:20.754Z,32.90
2019-01-23T01:10:50.432Z,34.03
2019-01-23T01:13:20.308Z,31.10
2019-01-23T01:15:49.897Z,32.30
2019-01-23T01:18:19.373Z,31.87
2019-01-23T01:20:49.022Z,31.90
2019-01-23T01:23:18.659Z,32.33
2019-01-23T01:25:48.221Z,31.57
2019-01-23T01:28:17.740Z,34.20
2019-01-23T01:30:47.194Z,34.10
2019-01-23T01:33:16.943Z,32.20
2019-01-23T01:35:46.462Z,30.33
2019-01-23T01:38:15.979Z,32.93
2019-01-23T01:40:45.626Z,33.60
2019-01-23T01:43:15.140Z,31.50
2019-01-23T01:45:44.651Z,35.17
2019-01-23T01:48:14.222Z,32.67
2019-01-23T01:50:43.726Z,32.73
2019-01-23T01:53:13.255Z,32.33
2019-01-23T01:55:42.788Z,32.60
2019-01-23T01:58:12.497Z,33.40
2019-01-23T02:00:42.003Z,30.87
2019-01-23T02:03:15.455Z,31.70
2019-01-23T02:05:43.184Z,32.07
2019-01-23T02:08:12.709Z,31.20
2019-01-23T02:10:42.676Z,30.63
2019-01-23T02:13:12.213Z,30.87
2019-01-23T02:15:42.107Z,32.20
2019-01-23T02:18:11.652Z,33.17
2019-01-23T02:20:41.197Z,32.27
2019-01-23T02:23:11.064Z,33.73
2019-01-23T02:25:41.041Z,30.23
2019-01-23T02:28:10.564Z,32.83
2019-01-23T02:30:40.495Z,33.30
2019-01-23T02:33:10.075Z,32.23
2019-01-23T02:35:39.540Z,30.17
2019-01-23T02:38:09.577Z,34.10
2019-01-23T02:40:39.076Z,32.83
2019-01-23T02:43:08.622Z,35.83
2019-01-23T02:45:38.152Z,32.50
2019-01-23T02:48:07.798Z,35.30
2019-01-23T02:50:37.332Z,33.60
2019-01-23T02:53:07.191Z,31.50
2019-01-23T02:55:36.731Z,34.23
2019-01-23T02:58:06.269Z,33.63
2019-01-23T03:00:36.142Z,34.73
2019-01-23T03:03:05.986Z,33.20
2019-01-23T03:05:35.511Z,35.57
2019-01-23T03:08:05.281Z,33.20
2019-01-23T03:10:54.353Z,33.50
2019-01-23T03:13:23.895Z,32.50
2019-01-23T03:15:53.374Z,31.50
2019-01-23T03:18:22.961Z,30.90
2019-01-23T03:20:52.881Z,32.23
2019-01-23T03:23:22.477Z,31.60
2019-01-23T03:25:52.025Z,32.03
2019-01-23T03:28:21.534Z,34.23
2019-01-23T03:30:51.158Z,33.30
2019-01-23T03:33:21.114Z,35.67
2019-01-23T03:35:50.640Z,32.87
2019-01-23T03:38:20.197Z,32.47
2019-01-23T03:40:49.727Z,32.67
2019-01-23T03:43:19.230Z,33.77
2019-01-23T03:45:48.826Z,36.50
2019-01-23T03:48:18.718Z,35.73
2019-01-23T03:50:48.691Z,34.63
2019-01-23T03:53:18.573Z,31.00
2019-01-23T03:55:48.100Z,34.00
2019-01-23T03:58:17.634Z,33.10
2019-01-23T04:00:47.156Z,33.27
2019-01-23T04:03:16.701Z,34.70
2019-01-23T04:05:46.377Z,34.40
2019-01-23T04:08:16.292Z,34.90
2019-01-23T04:10:45.877Z,32.83
2019-01-23T04:13:15.714Z,33.37
2019-01-23T04:15:45.271Z,33.00
2019-01-23T04:18:14.833Z,34.33
2019-01-23T04:20:44.775Z,33.77
2019-01-23T04:23:14.988Z,33.10
2019-01-23T04:25:47.936Z,32.70
2019-01-23T04:28:17.453Z,35.70
2019-01-23T04:30:47.005Z,32.77
2019-01-23T04:33:16.562Z,35.80
2019-01-23T04:35:46.090Z,33.27
2019-01-23T04:38:16.069Z,33.97
2019-01-23T04:40:46.047Z,34.70
2019-01-23T04:43:15.931Z,34.87
2019-01-23T04:45:45.612Z,36.13
2019-01-23T04:48:15.136Z,32.43
2019-01-23T04:51:06.909Z,35.00
2019-01-23T04:53:40.025Z,34.70
2019-01-23T04:56:09.604Z,35.40
2019-01-23T04:58:39.150Z,34.83
2019-01-23T05:01:09.489Z,35.47
2019-01-23T05:03:39.070Z,36.70
2019-01-23T05:06:08.560Z,35.33
2019-01-23T05:08:38.136Z,35.73
2019-01-23T05:11:07.670Z,35.77
2019-01-23T05:13:37.528Z,35.60
2019-01-23T05:16:07.025Z,35.23
2019-01-23T05:18:36.598Z,36.27
2019-01-23T05:21:06.164Z,35.00
2019-01-23T05:23:35.696Z,34.70
2019-01-23T05:26:05.322Z,34.50
2019-01-23T05:28:35.031Z,33.47
2019-01-23T05:31:04.618Z,35.30
2019-01-23T05:33:34.143Z,37.03
2019-01-23T05:36:03.685Z,34.90
2019-01-23T05:38:33.211Z,35.87
2019-01-23T05:41:02.787Z,35.60
2019-01-23T05:43:32.688Z,36.40
2019-01-23T05:46:02.207Z,34.10
2019-01-23T05:48:31.742Z,35.17
2019-01-23T05:51:01.305Z,34.37
2019-01-23T05:53:30.838Z,34.73
2019-01-23T05:56:00.339Z,36.77
2019-01-23T05:58:30.003Z,34.17
2019-01-23T06:00:59.553Z,34.53
2019-01-23T06:03:29.066Z,34.67
2019-01-23T06:05:58.616Z,33.63
2019-01-23T06:08:28.123Z,33.02
2019-01-23T06:10:57.711Z,34.25
2019-01-23T06:13:27.215Z,33.13
2019-01-23T06:15:57.062Z,39.60
2019-01-23T06:18:26.609Z,36.50
2019-01-23T06:20:56.154Z,34.90
2019-01-23T06:23:25.723Z,33.48
2019-01-23T06:25:55.292Z,33.95
2019-01-23T06:28:24.791Z,31.20
2019-01-23T06:30:54.371Z,33.00
2019-01-23T06:33:24.245Z,32.70
2019-01-23T06:35:54.153Z,31.48
2019-01-23T06:38:23.703Z,31.63
2019-01-23T06:40:54.022Z,31.85
2019-01-23T06:43:23.566Z,31.80
2019-01-23T06:45:53.087Z,32.70
2019-01-23T06:48:22.793Z,30.52
2019-01-23T06:50:52.707Z,32.65
2019-01-23T06:53:22.247Z,30.10
2019-01-23T06:55:51.875Z,30.27
2019-01-23T06:58:21.420Z,30.25
2019-01-23T07:00:50.992Z,30.25
2019-01-23T07:03:20.961Z,30.48
2019-01-23T07:05:50.806Z,29.02
2019-01-23T07:08:21.313Z,28.62
2019-01-23T07:10:51.197Z,30.80
2019-01-23T07:13:21.131Z,30.77
2019-01-23T07:15:50.646Z,30.55
2019-01-23T07:18:20.254Z,31.48
2019-01-23T07:20:50.894Z,28.12
2019-01-23T07:23:20.454Z,28.87
2019-01-23T07:25:51.521Z,30.17
2019-01-23T07:28:23.466Z,30.70
2019-01-23T07:30:53.481Z,29.85
2019-01-23T07:33:23.003Z,28.12
2019-01-23T07:35:53.011Z,30.30
2019-01-23T07:38:22.923Z,29.43
2019-01-23T07:40:52.462Z,30.97
2019-01-23T07:43:27.191Z,32.30
2019-01-23T07:45:56.743Z,29.10
2019-01-23T07:48:26.738Z,29.25
2019-01-23T07:50:56.712Z,28.47
2019-01-23T07:53:26.190Z,28.85
2019-01-23T07:55:55.788Z,28.52
2019-01-23T07:58:25.368Z,30.62
2019-01-23T08:00:54.927Z,30.25
2019-01-23T08:03:24.492Z,29.45
2019-01-23T08:05:54.040Z,30.50
2019-01-23T08:08:23.558Z,30.02
2019-01-23T08:10:53.123Z,31.52
2019-01-23T08:13:22.688Z,31.50
2019-01-23T08:15:52.543Z,31.55
2019-01-23T08:18:22.084Z,30.87
2019-01-23T08:20:51.599Z,30.23
2019-01-23T08:23:21.122Z,28.57
2019-01-23T08:25:50.660Z,33.42
2019-01-23T08:28:20.599Z,33.45
2019-01-23T08:30:50.145Z,30.60
2019-01-23T08:33:19.701Z,29.12
2019-01-23T08:35:49.281Z,32.13
2019-01-23T08:38:18.859Z,30.07
2019-01-23T08:40:48.358Z,30.77
2019-01-23T08:43:18.042Z,31.93
2019-01-23T08:45:47.565Z,32.90
2019-01-23T08:48:17.122Z,33.67
2019-01-23T08:50:46.864Z,30.63
2019-01-23T08:53:16.401Z,29.90
2019-01-23T08:55:45.966Z,31.00
2019-01-23T08:58:15.510Z,30.90
2019-01-23T09:00:45.898Z,31.10
2019-01-23T09:03:15.724Z,33.23
2019-01-23T09:05:45.401Z,29.33
2019-01-23T09:08:14.881Z,29.87
2019-01-23T09:10:44.424Z,30.37
2019-01-23T09:13:14.403Z,30.97
2019-01-23T09:15:43.913Z,30.00
2019-01-23T09:18:13.406Z,29.57
2019-01-23T09:20:42.940Z,31.43
2019-01-23T09:23:12.450Z,30.37
2019-01-23T09:25:42.049Z,29.30
2019-01-23T09:28:11.996Z,31.67
2019-01-23T09:31:05.385Z,28.50
2019-01-23T09:33:53.212Z,29.67
2019-01-23T09:37:10.053Z,29.20
2019-01-23T09:40:13.422Z,28.80
2019-01-23T09:43:12.036Z,40.97
2019-01-23T09:46:31.174Z,31.93
2019-01-23T09:49:37.739Z,28.70
2019-01-23T09:52:50.138Z,27.23
2019-01-23T09:55:20.051Z,28.83
2019-01-23T09:57:56.151Z,29.43
2019-01-23T10:00:28.257Z,27.90
2019-01-23T10:02:57.875Z,30.47
2019-01-23T10:05:27.428Z,34.08
2019-01-23T10:07:56.974Z,31.50
2019-01-23T10:10:26.637Z,29.07
2019-01-23T10:12:56.176Z,29.10
2019-01-23T10:15:33.248Z,28.57
2019-01-23T10:18:02.804Z,28.27
2019-01-23T10:20:32.681Z,30.63
2019-01-23T10:23:02.221Z,29.03
2019-01-23T10:25:31.758Z,31.10
2019-01-23T10:28:01.336Z,29.30
2019-01-23T10:30:36.851Z,29.03
2019-01-23T10:33:06.397Z,27.50
2019-01-23T10:35:35.969Z,28.40
2019-01-23T10:38:05.784Z,32.07
2019-01-23T10:40:35.436Z,30.07
2019-01-23T10:43:05.108Z,29.20
2019-01-23T10:45:34.730Z,28.50
2019-01-23T10:48:04.454Z,27.97
2019-01-23T10:50:33.974Z,29.70
2019-01-23T10:53:03.873Z,29.17
2019-01-23T10:55:34.026Z,31.23
2019-01-23T10:58:03.525Z,27.43
2019-01-23T11:00:33.280Z,29.00
2019-01-23T11:03:09.863Z,27.70
2019-01-23T11:05:34.024Z,30.40
2019-01-23T11:08:03.565Z,26.80
2019-01-23T11:10:33.577Z,28.87
2019-01-23T11:13:03.111Z,27.40
2019-01-23T11:15:32.610Z,27.13
2019-01-23T11:18:03.654Z,28.30
2019-01-23T11:20:33.166Z,27.20
2019-01-23T11:23:02.724Z,27.90
2019-01-23T11:25:33.057Z,28.43
2019-01-23T11:28:02.570Z,27.33
2019-01-23T11:30:32.134Z,26.90
2019-01-23T11:33:02.659Z,28.43
2019-01-23T11:35:32.220Z,27.50
2019-01-23T11:38:01.767Z,26.83
2019-01-23T11:40:31.810Z,24.83
2019-01-23T11:43:01.378Z,27.07
2019-01-23T11:45:30.912Z,28.50
2019-01-23T11:48:00.431Z,28.40
2019-01-23T11:50:30.009Z,25.93
2019-01-23T11:52:59.532Z,26.20
2019-01-23T11:55:29.770Z,27.20
2019-01-23T11:57:59.298Z,26.10
2019-01-23T12:00:31.569Z,25.63
2019-01-23T12:03:01.082Z,28.07
2019-01-23T12:05:30.716Z,26.83
2019-01-23T12:08:00.337Z,25.90
2019-01-23T12:10:29.827Z,27.53
2019-01-23T12:12:59.688Z,26.70
2019-01-23T12:15:29.245Z,26.37
2019-01-23T12:17:59.122Z,28.80
2019-01-23T12:20:28.645Z,24.67
2019-01-23T12:22:58.158Z,27.07
2019-01-23T12:25:27.840Z,26.40
2019-01-23T12:27:57.352Z,26.60
2019-01-23T12:30:29.660Z,25.97
2019-01-23T12:33:02.411Z,24.07
2019-01-23T12:35:33.511Z,23.87
2019-01-23T12:38:02.998Z,25.70
2019-01-23T12:40:34.186Z,24.10
2019-01-23T12:43:07.993Z,22.90
2019-01-23T12:45:38.380Z,24.03
2019-01-23T12:48:09.357Z,22.93
2019-01-23T12:50:41.893Z,24.70
2019-01-23T12:53:11.424Z,28.90
2019-01-23T12:55:46.441Z,28.57
2019-01-23T12:58:18.334Z,30.13
2019-01-23T13:00:48.271Z,25.90
2019-01-23T13:03:18.379Z,27.60
2019-01-23T13:05:48.868Z,29.20
2019-01-23T13:08:18.402Z,25.60
2019-01-23T13:10:48.309Z,27.30
2019-01-23T13:13:19.200Z,26.70
2019-01-23T13:15:48.936Z,26.90
2019-01-23T13:18:18.652Z,26.30
2019-01-23T13:20:48.402Z,26.30
2019-01-23T13:23:19.810Z,28.87
2019-01-23T13:25:49.184Z,26.57
2019-01-23T13:28:18.837Z,26.77
2019-01-23T13:30:48.388Z,26.80
2019-01-23T13:33:18.025Z,27.20
2019-01-23T13:35:47.529Z,26.83
2019-01-23T13:38:19.107Z,27.20
2019-01-23T13:40:49.452Z,23.20
2019-01-23T13:43:19.161Z,25.83
2019-01-23T13:45:48.803Z,26.60
2019-01-23T13:48:19.248Z,25.27
2019-01-23T13:50:49.459Z,24.40
2019-01-23T13:53:18.954Z,25.73
2019-01-23T13:55:48.830Z,26.17
2019-01-23T13:58:18.343Z,27.70
2019-01-23T14:00:47.903Z,30.00
2019-01-23T14:03:17.716Z,27.63
2019-01-23T14:05:47.765Z,28.37
2019-01-23T14:08:17.270Z,29.33
2019-01-23T14:10:46.795Z,31.37
2019-01-23T14:13:16.360Z,30.80
2019-01-23T14:15:46.244Z,27.73
2019-01-23T14:18:15.827Z,27.97
2019-01-23T14:20:45.340Z,27.20
2019-01-23T14:23:14.972Z,27.70
2019-01-23T14:25:44.956Z,26.13
2019-01-23T14:28:14.968Z,27.57
2019-01-23T14:30:47.632Z,28.53
2019-01-23T14:33:17.182Z,26.90
2019-01-23T14:35:47.341Z,27.17
2019-01-23T14:38:17.283Z,27.77
2019-01-23T14:40:46.746Z,28.80
2019-01-23T14:43:16.986Z,29.13
2019-01-23T14:45:47.180Z,27.83
2019-01-23T14:48:17.020Z,27.80
2019-01-23T14:50:46.549Z,28.70
2019-01-23T14:53:16.544Z,28.20
2019-01-23T14:55:46.081Z,27.77
2019-01-23T14:58:15.932Z,30.53
2019-01-23T15:00:45.557Z,34.50
2019-01-23T15:03:15.101Z,38.93
2019-01-23T15:05:45.216Z,36.53
2019-01-23T15:08:15.064Z,32.63
2019-01-23T15:10:44.656Z,30.83
2019-01-23T15:13:14.221Z,28.13
2019-01-23T15:15:43.777Z,28.43
2019-01-23T15:18:13.356Z,25.90
2019-01-23T15:20:42.929Z,27.83
2019-01-23T15:23:12.476Z,27.30
2019-01-23T15:25:42.700Z,26.93
2019-01-23T15:28:12.247Z,27.00
2019-01-23T15:30:41.879Z,29.33
2019-01-23T15:33:11.468Z,28.47
2019-01-23T15:35:40.943Z,28.07
2019-01-23T15:38:10.882Z,26.40
2019-01-23T15:40:40.633Z,29.90
2019-01-23T15:43:10.144Z,27.53
2019-01-23T15:45:39.639Z,26.87
2019-01-23T15:48:09.205Z,28.70
2019-01-23T15:50:38.720Z,30.40
2019-01-23T15:53:08.232Z,28.37
2019-01-23T15:55:37.762Z,29.20
2019-01-23T15:58:07.616Z,31.33
2019-01-23T16:00:37.162Z,30.60
2019-01-23T16:03:06.800Z,30.90
2019-01-23T16:05:36.331Z,26.70
2019-01-23T16:08:06.108Z,28.53
2019-01-23T16:10:35.620Z,30.80
2019-01-23T16:13:05.157Z,29.20
2019-01-23T16:15:34.706Z,31.17
2019-01-23T16:18:04.253Z,35.07
2019-01-23T16:20:34.114Z,32.17
2019-01-23T16:23:04.000Z,31.63
2019-01-23T16:25:33.666Z,29.50
2019-01-23T16:28:03.177Z,30.97
2019-01-23T16:30:36.122Z,35.80
2019-01-23T16:33:05.821Z,39.67
2019-01-23T16:35:38.802Z,39.88
2019-01-23T16:38:09.540Z,42.25
2019-01-23T16:40:40.060Z,44.60
2019-01-23T16:43:09.642Z,47.08
2019-01-23T16:45:39.168Z,49.77
2019-01-23T16:48:08.924Z,50.80
2019-01-23T16:50:40.081Z,50.40
2019-01-23T16:53:12.567Z,52.45
2019-01-23T16:55:44.506Z,51.85
2019-01-23T16:58:16.599Z,53.65
2019-01-23T17:00:47.953Z,49.20
2019-01-23T17:03:19.529Z,49.18
2019-01-23T17:05:52.180Z,46.98
2019-01-23T17:08:24.121Z,38.90
2019-01-23T17:10:54.143Z,35.20
2019-01-23T17:13:24.012Z,33.65
2019-01-23T17:15:53.561Z,37.08
2019-01-23T17:18:23.098Z,35.43
2019-01-23T17:20:54.072Z,34.25
2019-01-23T17:23:23.594Z,33.92
2019-01-23T17:25:53.131Z,32.90
2019-01-23T17:28:22.649Z,32.23
2019-01-23T17:30:52.184Z,28.92
2019-01-23T17:33:21.761Z,32.60
2019-01-23T17:35:51.364Z,29.20
2019-01-23T17:38:21.027Z,31.27
2019-01-23T17:40:50.549Z,33.18
2019-01-23T17:43:20.151Z,30.20
2019-01-23T17:45:49.873Z,32.20
2019-01-23T17:48:19.816Z,29.72
2019-01-23T17:50:49.372Z,29.05
2019-01-23T17:53:18.872Z,32.73
2019-01-23T17:55:48.499Z,31.02
2019-01-23T17:58:18.007Z,31.35
2019-01-23T18:00:55.195Z,30.45
2019-01-23T18:03:24.981Z,32.98
2019-01-23T18:05:55.386Z,31.48
2019-01-23T18:08:25.784Z,31.07
2019-01-23T18:10:56.019Z,33.25
2019-01-23T18:13:25.832Z,32.67
2019-01-23T18:16:05.976Z,29.67
2019-01-23T18:18:35.605Z,34.75
2019-01-23T18:21:05.704Z,31.75
2019-01-23T18:23:35.295Z,33.10
2019-01-23T18:26:04.931Z,33.48
2019-01-23T18:28:34.853Z,33.20
2019-01-23T18:31:28.665Z,34.83
2019-01-23T18:34:34.918Z,30.25
2019-01-23T18:37:15.180Z,33.63
2019-01-23T18:40:26.782Z,31.57
2019-01-23T18:43:34.843Z,31.25
2019-01-23T18:46:30.971Z,32.25
2019-01-23T18:49:19.763Z,34.50
2019-01-23T18:52:04.269Z,34.83
2019-01-23T18:54:34.239Z,32.73
2019-01-23T18:57:04.168Z,33.75
2019-01-23T18:59:35.068Z,31.12
2019-01-23T19:02:05.119Z,32.30
2019-01-23T19:04:35.087Z,31.82
2019-01-23T19:07:04.726Z,32.67
2019-01-23T19:09:34.617Z,30.95
2019-01-23T19:12:04.894Z,30.95
2019-01-23T19:14:34.419Z,33.67
2019-01-23T19:17:04.444Z,33.05
2019-01-23T19:19:34.289Z,31.27
2019-01-23T19:22:04.493Z,34.35
2019-01-23T19:24:34.061Z,31.02
2019-01-23T19:27:03.993Z,31.10
2019-01-23T19:29:33.543Z,35.52
2019-01-23T19:32:03.135Z,37.00
2019-01-23T19:34:32.668Z,33.10
2019-01-23T19:37:02.245Z,35.30
2019-01-23T19:39:32.210Z,34.05
2019-01-23T19:42:01.876Z,33.98
2019-01-23T19:44:31.449Z,34.38
2019-01-23T19:47:01.007Z,33.60
2019-01-23T19:49:30.543Z,31.50
2019-01-23T19:52:00.215Z,33.63
2019-01-23T19:54:29.840Z,31.90
2019-01-23T19:56:59.400Z,33.55
2019-01-23T19:59:28.952Z,31.77
2019-01-23T20:01:58.490Z,29.77
2019-01-23T20:04:28.003Z,31.97
2019-01-23T20:06:57.557Z,32.75
2019-01-23T20:09:27.102Z,31.40
2019-01-23T20:11:56.734Z,31.23
2019-01-23T20:14:26.300Z,33.02
2019-01-23T20:16:55.851Z,30.68
2019-01-23T20:19:25.386Z,31.45
2019-01-23T20:21:54.912Z,33.30
2019-01-23T20:24:24.817Z,31.07
2019-01-23T20:26:54.362Z,28.57
2019-01-23T20:29:23.926Z,30.17
2019-01-23T20:31:53.900Z,30.43
2019-01-23T20:34:23.446Z,30.62
2019-01-23T20:36:53.380Z,32.65
2019-01-23T20:39:22.924Z,32.53
2019-01-23T20:41:52.877Z,29.15
2019-01-23T20:44:22.462Z,30.72
2019-01-23T20:46:52.011Z,30.65
2019-01-23T20:49:21.522Z,29.30
2019-01-23T20:51:51.103Z,29.18
2019-01-23T20:54:20.984Z,31.07
2019-01-23T20:56:50.540Z,32.25
2019-01-23T20:59:20.039Z,29.67
2019-01-23T21:01:49.556Z,31.33
2019-01-23T21:04:19.112Z,29.30
2019-01-23T21:06:48.633Z,32.28
2019-01-23T21:09:18.193Z,32.63
2019-01-23T21:11:47.741Z,29.82
2019-01-23T21:14:17.483Z,30.60
2019-01-23T21:16:47.108Z,32.05
2019-01-23T21:19:16.741Z,31.75
2019-01-23T21:21:46.269Z,32.05
2019-01-23T21:24:15.795Z,29.65
2019-01-23T21:26:46.705Z,32.60
2019-01-23T21:29:16.235Z,31.75
2019-01-23T21:31:45.965Z,30.88
2019-01-23T21:34:15.490Z,31.73
2019-01-23T21:36:45.134Z,32.20
2019-01-23T21:39:15.052Z,32.98
2019-01-23T21:41:44.581Z,31.90
2019-01-23T21:44:14.214Z,34.70
2019-01-23T21:46:44.176Z,32.53
2019-01-23T21:49:13.684Z,34.53
2019-01-23T21:51:43.897Z,33.23
2019-01-23T21:54:13.447Z,35.10
2019-01-23T21:56:42.973Z,33.55
2019-01-23T21:59:12.796Z,35.40
2019-01-23T22:01:42.356Z,33.65
2019-01-23T22:04:11.891Z,35.03
2019-01-23T22:06:41.419Z,32.13
2019-01-23T22:09:10.971Z,34.95
2019-01-23T22:11:43.626Z,35.23
2019-01-23T22:14:11.752Z,33.65
2019-01-23T22:16:41.298Z,32.63
2019-01-23T22:19:10.822Z,34.10
2019-01-23T22:21:40.698Z,34.33
2019-01-23T22:24:10.224Z,32.28
2019-01-23T22:26:39.756Z,34.13
2019-01-23T22:29:09.264Z,35.43
2019-01-23T22:31:39.146Z,34.80
2019-01-23T22:34:08.677Z,32.40
2019-01-23T22:36:38.256Z,34.55
2019-01-23T22:39:09.307Z,37.38
2019-01-23T22:41:38.832Z,34.38
2019-01-23T22:44:08.398Z,35.33
2019-01-23T22:46:37.906Z,34.05
2019-01-23T22:49:07.446Z,34.67
2019-01-23T22:51:36.955Z,34.95
2019-01-23T22:54:06.460Z,35.25
2019-01-23T22:56:36.041Z,35.60
2019-01-23T22:59:05.710Z,35.75
2019-01-23T23:01:35.447Z,35.17
2019-01-23T23:04:04.982Z,33.88
2019-01-23T23:06:34.631Z,31.40
2019-01-23T23:09:06.830Z,32.00
2019-01-23T23:11:36.344Z,35.13
2019-01-23T23:14:06.312Z,36.85
2019-01-23T23:16:35.844Z,34.73
2019-01-23T23:19:05.570Z,32.60
2019-01-23T23:21:35.117Z,34.08
2019-01-23T23:24:04.760Z,34.58
2019-01-23T23:26:34.266Z,33.67
2019-01-23T23:29:03.894Z,36.45
2019-01-23T23:31:33.422Z,35.33
2019-01-23T23:34:02.938Z,36.17
2019-01-23T23:36:32.501Z,35.60
2019-01-23T23:39:02.020Z,35.25
2019-01-23T23:41:31.548Z,38.48
2019-01-23T23:44:01.059Z,34.13
2019-01-23T23:46:30.653Z,33.85
2019-01-23T23:49:00.189Z,36.35
2019-01-23T23:51:30.048Z,33.95
2019-01-23T23:53:59.607Z,33.53
2019-01-23T23:56:29.125Z,35.38
2019-01-23T23:58:58.655Z,37.35
